Time;durP1;ratioP1;P1;durP2;ratioP2;P2;SDS_P1;SDS_P2;PMS_P1;PMS_P2;Temp;Humidity;BMP_temperature;BMP_pressure;BME280_temperature;BME280_humidity;BME280_pressure;Samples;Min_cycle;Max_cycle;Signal;HPM_P1;HPM_P2
2021/11/14 00:01:52;;;;;;;23.80;12.65;;;;;;;0.04;81.97;96987.41;5093323;28;20024;-62
2021/11/14 00:04:18;;;;;;;14.95;9.15;;;;;;;-0.01;81.78;96977.94;5093168;28;20016;-66
2021/11/14 00:06:44;;;;;;;22.88;10.85;;;;;;;-0.06;81.92;96982.16;5093217;28;20035;-66
2021/11/14 00:09:11;;;;;;;33.20;16.90;;;;;;;-0.03;82.59;96981.34;5093149;28;20021;-67
2021/11/14 00:11:37;;;;;;;29.38;14.95;;;;;;;0.01;83.13;96983.09;5093133;28;20031;-64
2021/11/14 00:14:03;;;;;;;26.55;12.77;;;;;;;-0.01;83.18;96987.34;5093125;28;20020;-64
2021/11/14 00:16:29;;;;;;;19.10;9.73;;;;;;;0.01;83.01;96977.94;5093150;28;20028;-62
2021/11/14 00:18:55;;;;;;;21.98;11.05;;;;;;;0.03;83.29;96983.94;5093731;28;20044;-67
2021/11/14 00:21:22;;;;;;;25.92;13.50;;;;;;;0.04;83.30;96977.13;5097142;28;20028;-65
2021/11/14 00:23:48;;;;;;;26.33;13.18;;;;;;;-0.04;83.04;96983.03;5097155;28;20107;-65
2021/11/14 00:26:14;;;;;;;28.33;17.70;;;;;;;0.00;83.18;96983.94;5097093;28;20078;-66
2021/11/14 00:28:42;;;;;;;23.77;13.13;;;;;;;0.01;83.10;96988.25;5097059;28;20031;-67
2021/11/14 00:31:09;;;;;;;20.13;13.13;;;;;;;0.08;83.14;96986.59;5097073;28;20027;-62
2021/11/14 00:33:35;;;;;;;21.30;12.80;;;;;;;0.10;82.85;96983.19;5097052;28;20114;-67
2021/11/14 00:36:02;;;;;;;16.42;9.85;;;;;;;0.12;82.74;96980.66;5097077;28;20024;-65
2021/11/14 00:38:28;;;;;;;17.85;10.23;;;;;;;0.05;82.46;96979.69;5096950;28;20036;-65
2021/11/14 00:40:54;;;;;;;16.05;9.05;;;;;;;0.02;82.87;96976.22;5096827;28;20028;-66
2021/11/14 00:43:20;;;;;;;24.15;14.02;;;;;;;0.06;83.57;96980.56;5096786;28;20028;-67
2021/11/14 00:45:46;;;;;;;21.83;11.48;;;;;;;0.19;84.02;96973.84;5096781;28;20389;-67
2021/11/14 00:48:13;;;;;;;21.75;10.82;;;;;;;0.17;84.53;96981.53;5096768;28;20028;-65
2021/11/14 00:50:43;;;;;;;21.63;10.60;;;;;;;0.28;84.10;96979.09;5096724;28;20103;-63
2021/11/14 00:53:10;;;;;;;22.20;12.60;;;;;;;0.34;83.81;96979.16;5096611;28;20043;-62
2021/11/14 00:55:36;;;;;;;49.25;17.92;;;;;;;0.34;83.17;96980.84;5096545;28;20031;-66
2021/11/14 00:58:03;;;;;;;51.35;17.95;;;;;;;0.39;83.20;96979.16;5096562;28;20024;-63
2021/11/14 01:00:29;;;;;;;33.92;14.50;;;;;;;0.42;83.34;96979.19;5096535;28;20046;-66
2021/11/14 01:02:55;;;;;;;20.73;9.57;;;;;;;0.45;83.59;96974.09;5096414;28;20033;-63
2021/11/14 01:05:22;;;;;;;20.85;10.57;;;;;;;0.51;83.92;96973.28;5096220;28;20024;-66
2021/11/14 01:07:48;;;;;;;17.15;8.95;;;;;;;0.52;84.37;96977.59;5096376;28;20024;-66
2021/11/14 01:10:18;;;;;;;31.75;14.27;;;;;;;0.54;84.27;96970.72;5096250;28;20473;-66
2021/11/14 01:12:44;;;;;;;35.70;15.20;;;;;;;0.61;84.12;96969.09;5096505;28;20508;-64
2021/11/14 01:15:11;;;;;;;18.35;9.35;;;;;;;0.59;84.16;96965.63;5096284;28;20072;-64
2021/11/14 01:17:38;;;;;;;17.15;8.35;;;;;;;0.67;84.27;96963.09;5096149;28;20542;-67
2021/11/14 01:20:11;;;;;;;19.52;9.43;;;;;;;0.71;84.10;96958.00;5096051;28;20036;-66
2021/11/14 01:22:37;;;;;;;21.50;9.82;;;;;;;0.76;84.33;96960.63;5096026;28;20084;-65
2021/11/14 01:25:04;;;;;;;20.30;10.73;;;;;;;0.87;84.56;96968.41;5096173;28;20027;-64
2021/11/14 01:27:30;;;;;;;26.13;11.07;;;;;;;0.90;84.59;96965.00;5095996;28;20114;-68
2021/11/14 01:29:56;;;;;;;17.92;10.60;;;;;;;0.98;84.19;96956.47;5095331;28;20150;-65
2021/11/14 01:32:21;;;;;;;24.48;9.30;;;;;;;1.02;84.30;96966.81;5096012;28;20020;-64
2021/11/14 01:34:47;;;;;;;19.42;10.10;;;;;;;1.03;84.36;96963.38;5095822;28;20013;-64
2021/11/14 01:37:12;;;;;;;18.23;8.30;;;;;;;1.13;84.17;96967.72;5095809;28;20039;-67
2021/11/14 01:39:38;;;;;;;15.35;8.45;;;;;;;1.21;84.41;96965.22;5095704;28;20062;-66
2021/11/14 01:42:04;;;;;;;20.55;9.65;;;;;;;1.19;84.39;96970.34;5095636;28;20031;-63
2021/11/14 01:44:30;;;;;;;29.17;9.98;;;;;;;1.31;85.05;96967.00;5095618;28;20033;-62
2021/11/14 01:46:55;;;;;;;21.35;10.13;;;;;;;1.43;85.03;96967.91;5095588;28;20025;-64
2021/11/14 01:49:21;;;;;;;22.65;11.75;;;;;;;1.43;85.11;96965.31;5095635;28;20403;-67
2021/11/14 01:51:47;;;;;;;28.45;12.50;;;;;;;1.51;85.28;96964.50;5095422;28;20103;-64
2021/11/14 01:54:19;;;;;;;29.58;13.90;;;;;;;1.61;85.49;96961.97;5095486;28;20024;-62
2021/11/14 01:56:47;;;;;;;22.92;12.63;;;;;;;1.70;85.63;96966.31;5095381;28;20038;-63
2021/11/14 01:59:13;;;;;;;13.80;7.78;;;;;;;1.76;84.95;96968.91;5095251;28;20110;-66
2021/11/14 02:01:39;;;;;;;18.13;8.82;;;;;;;1.76;84.78;96963.75;5095231;28;20028;-67
2021/11/14 02:04:07;;;;;;;20.60;10.52;;;;;;;1.80;84.53;96964.63;5095331;28;20050;-62
2021/11/14 02:06:35;;;;;;;21.73;11.07;;;;;;;1.91;84.92;96962.94;5095399;28;20420;-64
2021/11/14 02:09:02;;;;;;;36.58;14.27;;;;;;;1.90;84.64;96968.97;5095273;28;20082;-65
2021/11/14 02:11:28;;;;;;;17.75;7.65;;;;;;;1.95;85.11;96954.34;5095163;28;20028;-67
2021/11/14 02:13:53;;;;;;;22.30;11.30;;;;;;;2.01;85.45;96956.09;5095079;28;20031;-62
2021/11/14 02:16:25;;;;;;;19.75;10.80;;;;;;;2.05;85.40;96954.38;5094971;28;20056;-65
2021/11/14 02:18:51;;;;;;;24.23;11.38;;;;;;;2.12;85.28;96946.66;5094780;28;20455;-67
2021/11/14 02:21:17;;;;;;;30.48;12.75;;;;;;;2.19;85.51;96950.09;5094811;28;20074;-66
2021/11/14 02:23:45;;;;;;;18.25;9.40;;;;;;;2.23;85.38;96951.84;5094835;28;20020;-65
2021/11/14 02:26:11;;;;;;;14.13;8.07;;;;;;;2.24;84.95;96947.53;5094941;28;20013;-66
2021/11/14 02:28:37;;;;;;;18.42;10.10;;;;;;;2.11;84.59;96938.91;5094730;28;20047;-63
2021/11/14 02:31:04;;;;;;;19.15;10.75;;;;;;;2.21;84.26;96948.41;5094730;28;20474;-63
2021/11/14 02:33:30;;;;;;;21.75;12.45;;;;;;;2.26;84.30;96949.25;5094839;28;20028;-65
2021/11/14 02:35:59;;;;;;;24.27;13.02;;;;;;;2.29;84.58;96953.59;5094646;28;20103;-67
2021/11/14 02:38:26;;;;;;;27.48;13.10;;;;;;;2.36;85.18;96952.72;5094666;28;20161;-62
2021/11/14 02:40:52;;;;;;;20.02;10.25;;;;;;;2.42;84.73;96954.47;5094184;28;20028;-63
2021/11/14 02:43:18;;;;;;;25.10;11.90;;;;;;;2.49;84.88;96956.19;5093744;28;20035;-62
2021/11/14 02:45:45;;;;;;;22.65;11.52;;;;;;;2.51;84.76;96949.31;5094465;28;20032;-64
2021/11/14 02:48:12;;;;;;;29.23;14.25;;;;;;;2.50;84.70;96955.31;5094498;28;20021;-63
2021/11/14 02:50:39;;;;;;;24.70;14.35;;;;;;;2.55;84.65;96944.13;5094413;28;20020;-65
2021/11/14 02:53:06;;;;;;;26.05;13.35;;;;;;;2.60;84.63;96952.75;5094260;28;20024;-67
2021/11/14 02:55:32;;;;;;;25.08;13.13;;;;;;;2.65;84.57;96948.44;5094257;28;20358;-64
2021/11/14 02:57:58;;;;;;;24.67;13.90;;;;;;;2.69;84.56;96952.75;5094324;28;20027;-66
2021/11/14 03:00:32;;;;;;;17.13;10.73;;;;;;;2.73;84.37;96948.44;5094178;28;20027;-65
2021/11/14 03:02:59;;;;;;;26.08;13.57;;;;;;;2.74;84.62;96952.75;5094220;28;20024;-61
2021/11/14 03:05:24;;;;;;;29.55;13.32;;;;;;;2.78;85.14;96946.72;5094002;28;20024;-63
2021/11/14 03:07:51;;;;;;;27.05;11.13;;;;;;;2.80;84.52;96951.88;5094088;28;20031;-66
2021/11/14 03:10:20;;;;;;;27.25;15.27;;;;;;;2.69;84.52;96950.16;5094101;28;20542;-66
2021/11/14 03:13:06;;;;;;;26.50;11.27;;;;;;;2.78;84.92;96946.72;5094092;28;20034;-62
2021/11/14 03:15:36;;;;;;;15.88;9.45;;;;;;;2.83;84.69;96939.81;5093843;28;20259;-64
2021/11/14 03:18:03;;;;;;;23.77;12.98;;;;;;;2.88;84.61;96939.81;5093929;28;20044;-64
2021/11/14 03:20:29;;;;;;;32.70;14.30;;;;;;;2.93;84.81;96945.84;5093644;28;20044;-64
2021/11/14 03:22:54;;;;;;;30.25;14.20;;;;;;;3.01;85.18;96946.69;5093705;28;20059;-64
2021/11/14 03:25:23;;;;;;;22.67;12.85;;;;;;;3.05;85.02;96950.13;5093769;28;20048;-64
2021/11/14 03:27:50;;;;;;;24.33;13.02;;;;;;;3.09;84.87;96945.81;5093736;28;20017;-62
2021/11/14 03:30:17;;;;;;;26.58;15.00;;;;;;;3.13;84.94;96953.56;5093669;28;20086;-66
2021/11/14 03:32:43;;;;;;;29.15;14.65;;;;;;;3.16;85.29;96945.81;5093559;28;20028;-63
2021/11/14 03:35:09;;;;;;;25.80;14.18;;;;;;;3.19;85.02;96944.94;5093547;28;20034;-60
2021/11/14 03:37:34;;;;;;;28.98;14.73;;;;;;;3.14;84.71;96942.38;5093629;28;20032;-65
2021/11/14 03:40:00;;;;;;;24.13;13.15;;;;;;;3.16;84.90;96944.94;5093485;28;20023;-64
2021/11/14 03:42:26;;;;;;;29.27;15.00;;;;;;;3.19;84.81;96949.25;5093470;28;20073;-67
2021/11/14 03:44:52;;;;;;;32.85;15.93;;;;;;;3.25;85.26;96939.75;5093366;28;20016;-63
2021/11/14 03:47:18;;;;;;;23.13;13.98;;;;;;;3.33;84.83;96938.84;5093507;28;20099;-65
2021/11/14 03:49:43;;;;;;;33.20;17.52;;;;;;;3.25;84.76;96936.31;5093457;28;20478;-64
2021/11/14 03:52:11;;;;;;;49.28;22.98;;;;;;;3.21;85.18;96938.03;5093292;28;20031;-65
2021/11/14 03:54:38;;;;;;;30.02;16.27;;;;;;;3.28;84.91;96942.31;5093062;28;20048;-64
2021/11/14 03:57:04;;;;;;;35.67;17.48;;;;;;;3.35;84.96;96942.31;5093242;28;20091;-63
2021/11/14 03:59:29;;;;;;;35.08;16.88;;;;;;;3.36;84.74;96942.31;5093202;28;20035;-64
2021/11/14 04:01:55;;;;;;;33.40;17.52;;;;;;;3.38;84.60;96944.91;5093132;28;20385;-64
2021/11/14 04:04:21;;;;;;;28.80;16.77;;;;;;;3.39;84.39;96944.03;5093274;28;20032;-63
2021/11/14 04:06:46;;;;;;;30.30;17.08;;;;;;;3.40;84.34;96938.84;5093165;28;20107;-65
2021/11/14 04:09:12;;;;;;;31.70;17.33;;;;;;;3.43;84.18;96939.72;5093156;28;20032;-66
2021/11/14 04:11:37;;;;;;;30.30;17.45;;;;;;;3.47;84.18;96944.00;5093094;28;20052;-62
2021/11/14 04:14:03;;;;;;;28.08;16.65;;;;;;;3.50;83.66;96947.47;5093145;28;20024;-65
2021/11/14 04:16:29;;;;;;;34.22;17.50;;;;;;;3.51;83.78;96943.13;5093097;28;20477;-62
2021/11/14 04:18:55;;;;;;;31.25;16.67;;;;;;;3.53;83.63;96942.25;5092857;28;20052;-64
2021/11/14 04:21:21;;;;;;;31.02;17.92;;;;;;;3.50;83.79;96947.47;5093156;28;20024;-63
2021/11/14 04:23:46;;;;;;;33.72;16.55;;;;;;;3.45;84.06;96946.59;5093016;28;20072;-66
2021/11/14 04:26:12;;;;;;;39.20;17.25;;;;;;;3.51;84.10;96948.28;5093199;28;20099;-62
2021/11/14 04:28:38;;;;;;;29.92;15.32;;;;;;;3.54;84.36;96941.41;5092914;28;20027;-62
2021/11/14 04:31:04;;;;;;;29.55;15.35;;;;;;;3.53;84.75;96944.84;5093069;28;20035;-63
2021/11/14 04:33:30;;;;;;;25.27;13.32;;;;;;;3.59;84.61;96943.09;5093003;28;20023;-65
2021/11/14 04:35:56;;;;;;;21.90;12.57;;;;;;;3.57;84.37;96937.94;5092921;28;20024;-65
2021/11/14 04:38:22;;;;;;;25.08;12.38;;;;;;;3.61;84.36;96946.56;5093011;28;20024;-65
2021/11/14 04:40:49;;;;;;;21.15;11.77;;;;;;;3.63;84.32;96948.25;5092888;28;20020;-66
2021/11/14 04:43:17;;;;;;;25.40;13.20;;;;;;;3.65;84.21;96943.94;5092673;28;20378;-63
2021/11/14 04:45:45;;;;;;;26.35;12.65;;;;;;;3.70;84.09;96943.06;5092869;28;20032;-61
2021/11/14 04:48:11;;;;;;;25.58;13.10;;;;;;;3.71;83.97;96948.25;5091698;28;20020;-66
2021/11/14 04:50:37;;;;;;;25.77;13.95;;;;;;;3.76;84.02;96953.38;5092812;28;20034;-66
2021/11/14 04:53:05;;;;;;;31.23;15.07;;;;;;;3.79;84.13;96946.47;5092754;28;20497;-66
2021/11/14 04:55:31;;;;;;;28.48;13.43;;;;;;;3.82;84.33;96952.50;5092734;28;20133;-63
2021/11/14 04:57:57;;;;;;;31.05;13.68;;;;;;;3.81;84.19;96949.06;5092789;28;20012;-67
2021/11/14 05:00:26;;;;;;;31.23;16.10;;;;;;;3.84;84.34;96951.63;5092822;28;20020;-64
2021/11/14 05:02:53;;;;;;;29.83;14.55;;;;;;;3.88;84.48;96955.91;5092702;28;20030;-63
2021/11/14 05:05:18;;;;;;;30.10;17.00;;;;;;;3.92;84.84;96954.19;5094110;28;20031;-65
2021/11/14 05:07:44;;;;;;;25.48;14.27;;;;;;;3.98;84.50;96955.88;5096373;28;20032;-63
2021/11/14 05:10:10;;;;;;;27.90;13.70;;;;;;;3.99;84.14;96955.88;5096330;28;20043;-65
2021/11/14 05:12:36;;;;;;;27.40;13.98;;;;;;;4.03;84.07;96961.88;5096249;28;20028;-62
2021/11/14 05:15:03;;;;;;;26.80;14.68;;;;;;;4.06;84.11;96961.88;5096229;28;20031;-65
2021/11/14 05:17:28;;;;;;;32.83;15.75;;;;;;;4.09;84.14;96956.66;5096138;28;20051;-62
2021/11/14 05:19:54;;;;;;;27.98;16.40;;;;;;;4.15;83.83;96955.78;5096040;28;20067;-63
2021/11/14 05:22:20;;;;;;;26.70;16.23;;;;;;;4.17;84.03;96957.50;5096005;28;20429;-62
2021/11/14 05:24:45;;;;;;;32.53;17.42;;;;;;;4.19;84.31;96961.81;5096083;28;20027;-67
2021/11/14 05:27:12;;;;;;;34.35;17.25;;;;;;;4.23;84.33;96963.50;5096075;28;20024;-65
2021/11/14 05:29:37;;;;;;;23.65;13.02;;;;;;;4.30;84.41;96966.06;5096016;28;20031;-64
2021/11/14 05:32:03;;;;;;;23.88;13.70;;;;;;;4.33;84.43;96965.16;5095904;28;20390;-63
2021/11/14 05:34:29;;;;;;;24.67;12.43;;;;;;;4.37;84.74;96974.63;5095947;28;20028;-66
2021/11/14 05:36:55;;;;;;;24.67;13.13;;;;;;;4.38;84.70;96963.44;5095908;28;20575;-65
2021/11/14 05:39:20;;;;;;;29.13;14.02;;;;;;;4.39;84.85;96972.03;5095842;28;20020;-66
2021/11/14 05:41:46;;;;;;;25.75;14.48;;;;;;;4.42;84.77;96972.00;5095691;28;20351;-66
2021/11/14 05:44:12;;;;;;;27.17;13.55;;;;;;;4.44;84.95;96975.47;5095707;28;20382;-65
2021/11/14 05:46:38;;;;;;;26.90;12.48;;;;;;;4.50;84.93;96972.84;5095701;28;20106;-67
2021/11/14 05:49:08;;;;;;;25.20;13.10;;;;;;;4.54;85.20;96973.66;5095718;28;20067;-64
2021/11/14 05:51:34;;;;;;;29.77;15.05;;;;;;;4.59;85.49;96973.63;5095517;28;20032;-62
2021/11/14 05:53:59;;;;;;;28.75;14.10;;;;;;;4.64;85.30;96974.47;5095632;28;20020;-61
2021/11/14 05:56:25;;;;;;;28.48;16.65;;;;;;;4.72;85.50;96974.44;5095550;28;20020;-63
2021/11/14 05:58:57;;;;;;;23.92;14.70;;;;;;;4.78;85.48;96982.13;5095412;28;20020;-66
2021/11/14 06:01:32;;;;;;;28.13;13.60;;;;;;;4.84;85.12;96982.09;5095413;28;20032;-65
2021/11/14 06:04:22;;;;;;;20.85;13.00;;;;;;;4.91;85.06;96980.31;5095458;28;20051;-66
2021/11/14 06:06:46;;;;;;;22.25;12.95;;;;;;;4.99;84.76;96986.28;5095142;28;20024;-65
2021/11/14 06:09:12;;;;;;;24.50;13.70;;;;;;;5.08;84.86;97000.06;5095238;28;20421;-63
2021/11/14 06:11:37;;;;;;;27.08;15.60;;;;;;;5.14;84.41;96995.66;5095235;28;20056;-62
2021/11/14 06:14:04;;;;;;;26.95;16.02;;;;;;;5.23;84.18;96994.72;5095248;28;20058;-63
2021/11/14 06:16:29;;;;;;;21.90;13.23;;;;;;;5.32;84.19;96998.97;5095120;28;20490;-66
2021/11/14 06:18:56;;;;;;;24.42;15.70;;;;;;;5.37;84.53;97001.50;5094868;28;20058;-61
2021/11/14 06:21:22;;;;;;;30.95;16.77;;;;;;;5.42;84.52;96997.16;5094935;28;20032;-62
2021/11/14 06:23:49;;;;;;;25.10;15.68;;;;;;;5.50;84.71;97000.53;5094919;28;20024;-63
2021/11/14 06:26:15;;;;;;;22.58;14.27;;;;;;;5.58;84.67;97003.03;5094942;28;20020;-64
2021/11/14 06:28:40;;;;;;;21.52;13.73;;;;;;;5.68;84.44;97011.56;5093708;28;20089;-65
2021/11/14 06:31:06;;;;;;;21.13;14.05;;;;;;;5.77;83.93;97008.00;5094813;28;20020;-65
2021/11/14 06:33:32;;;;;;;25.20;15.85;;;;;;;5.86;83.63;97004.44;5094829;28;20028;-67
2021/11/14 06:35:57;;;;;;;21.13;16.52;;;;;;;5.88;83.58;97005.31;5093454;28;20016;-62
2021/11/14 06:38:23;;;;;;;30.10;16.50;;;;;;;6.00;83.20;97010.38;5094660;28;20024;-64
2021/11/14 06:40:50;;;;;;;19.88;14.20;;;;;;;6.09;83.19;97003.34;5094641;28;20024;-62
2021/11/14 06:43:16;;;;;;;22.65;13.50;;;;;;;6.21;82.69;97010.13;5094573;28;20024;-63
2021/11/14 06:45:41;;;;;;;22.30;15.27;;;;;;;6.30;82.47;97005.66;5094492;28;20024;-65
2021/11/14 06:48:07;;;;;;;21.50;13.00;;;;;;;6.41;82.33;97002.09;5094625;28;20024;-63
2021/11/14 06:50:33;;;;;;;19.55;14.23;;;;;;;6.51;81.88;97008.00;5094452;28;20028;-65
2021/11/14 06:53:00;;;;;;;21.55;13.60;;;;;;;6.60;82.01;97001.81;5094406;28;20020;-65
2021/11/14 06:55:25;;;;;;;22.65;14.00;;;;;;;6.63;81.72;97002.63;5094303;28;20042;-65
2021/11/14 06:57:51;;;;;;;18.23;13.10;;;;;;;6.78;81.51;97005.88;5094295;28;20020;-65
2021/11/14 07:00:21;;;;;;;23.08;15.63;;;;;;;6.90;81.35;97004.81;5094200;28;20055;-63
2021/11/14 07:02:47;;;;;;;18.17;13.48;;;;;;;6.97;81.42;97006.44;5094144;28;20462;-63
2021/11/14 07:05:13;;;;;;;20.85;14.07;;;;;;;7.03;81.26;97005.47;5094188;28;20026;-66
2021/11/14 07:07:40;;;;;;;20.77;14.25;;;;;;;7.09;81.18;97000.19;5094299;28;20378;-64
2021/11/14 07:10:07;;;;;;;21.55;12.73;;;;;;;7.06;81.34;97008.03;5094104;28;20020;-66
2021/11/14 07:12:33;;;;;;;20.65;13.10;;;;;;;7.07;81.78;97008.00;5093974;28;20021;-66
2021/11/14 07:14:59;;;;;;;18.80;13.32;;;;;;;7.13;81.33;97001.84;5093970;28;20470;-62
2021/11/14 07:17:26;;;;;;;17.65;13.07;;;;;;;7.22;81.23;97010.38;5093768;28;20032;-65
2021/11/14 07:19:53;;;;;;;23.63;14.80;;;;;;;7.28;80.82;97012.84;5093664;28;20051;-65
2021/11/14 07:22:18;;;;;;;18.95;13.43;;;;;;;7.35;80.18;97008.41;5093799;28;20024;-63
2021/11/14 07:24:46;;;;;;;23.35;13.48;;;;;;;7.45;80.23;97009.97;5093699;28;20562;-66
2021/11/14 07:27:12;;;;;;;15.63;11.50;;;;;;;7.57;80.00;97009.75;5093460;28;20036;-64
2021/11/14 07:29:37;;;;;;;20.10;12.65;;;;;;;7.66;79.41;97011.34;5093636;28;20031;-62
2021/11/14 07:32:04;;;;;;;18.88;12.32;;;;;;;7.77;79.01;97013.72;5093637;28;20032;-64
2021/11/14 07:34:29;;;;;;;16.85;12.25;;;;;;;7.89;78.53;97009.16;5093600;28;20028;-65
2021/11/14 07:36:55;;;;;;;17.05;12.32;;;;;;;8.01;78.21;97008.91;5093517;28;20147;-65
2021/11/14 07:39:20;;;;;;;16.20;11.43;;;;;;;8.09;78.04;97006.16;5093547;28;20078;-62
2021/11/14 07:41:46;;;;;;;16.40;11.20;;;;;;;8.14;77.97;97003.44;5093467;28;20032;-63
2021/11/14 07:44:12;;;;;;;18.98;12.32;;;;;;;8.19;77.85;97004.22;5093554;28;20044;-62
2021/11/14 07:46:38;;;;;;;17.20;12.25;;;;;;;8.19;77.56;97005.06;5093465;28;20031;-61
2021/11/14 07:49:04;;;;;;;19.48;12.05;;;;;;;8.19;78.53;97001.63;5093448;28;20028;-61
2021/11/14 07:51:30;;;;;;;22.30;14.25;;;;;;;8.29;78.19;97012.69;5093503;28;20020;-62
2021/11/14 07:53:58;;;;;;;23.05;12.93;;;;;;;8.41;78.03;97007.22;5093515;28;20569;-64
2021/11/14 07:56:24;;;;;;;17.10;11.98;;;;;;;8.55;77.27;97006.94;5093298;28;20028;-66
2021/11/14 07:58:50;;;;;;;15.38;11.88;;;;;;;8.68;76.79;97011.88;5093284;28;20035;-64
2021/11/14 08:01:15;;;;;;;15.95;11.15;;;;;;;8.77;76.35;97010.81;5093158;28;20028;-64
2021/11/14 08:03:41;;;;;;;13.88;10.82;;;;;;;8.82;75.95;97015.03;5093323;28;20097;-63
2021/11/14 08:06:08;;;;;;;15.35;10.93;;;;;;;8.87;75.79;97016.66;5093301;28;20383;-66
2021/11/14 08:08:34;;;;;;;15.15;11.77;;;;;;;8.89;75.30;97009.66;5093261;28;20028;-62
2021/11/14 08:11:00;;;;;;;14.85;11.57;;;;;;;8.92;75.35;97007.00;5092066;28;20367;-65
2021/11/14 08:13:26;;;;;;;17.30;12.15;;;;;;;8.96;74.66;97008.63;5093068;28;20031;-65
2021/11/14 08:15:51;;;;;;;15.95;11.85;;;;;;;9.00;74.47;97012.88;5093170;28;20024;-64
2021/11/14 08:18:17;;;;;;;15.18;11.85;;;;;;;9.08;74.28;97016.16;5092875;28;20461;-62
2021/11/14 08:20:44;;;;;;;14.95;9.98;;;;;;;9.13;74.33;97013.44;5093245;28;20032;-64
2021/11/14 08:23:10;;;;;;;16.98;10.65;;;;;;;9.22;73.46;97012.34;5092919;28;20038;-63
2021/11/14 08:25:36;;;;;;;13.18;10.80;;;;;;;9.33;72.84;97009.50;5092977;28;20028;-66
2021/11/14 08:28:03;;;;;;;13.90;10.77;;;;;;;9.35;72.54;97012.91;5092963;28;20029;-63
2021/11/14 08:30:29;;;;;;;20.45;10.30;;;;;;;9.45;72.20;97016.97;5093029;28;20059;-64
2021/11/14 08:32:55;;;;;;;14.38;11.15;;;;;;;9.58;71.73;97008.84;5092991;28;20044;-65
2021/11/14 08:35:22;;;;;;;15.20;10.25;;;;;;;9.72;71.90;97016.28;5092941;28;20372;-63
2021/11/14 08:37:50;;;;;;;16.15;10.70;;;;;;;9.78;70.36;97023.97;5092903;28;20020;-67
2021/11/14 08:40:16;;;;;;;13.85;10.73;;;;;;;9.94;69.98;97019.16;5094463;28;20016;-67
2021/11/14 08:42:42;;;;;;;13.35;8.45;;;;;;;10.01;68.71;97025.09;5096874;28;20030;-62
2021/11/14 08:45:09;;;;;;;11.48;8.35;;;;;;;10.14;68.83;97016.91;5097001;28;20786;-65
2021/11/14 08:47:36;;;;;;;9.90;7.20;;;;;;;10.31;68.07;97021.63;5096759;28;20085;-63
2021/11/14 08:50:04;;;;;;;12.60;6.00;;;;;;;10.48;66.07;97013.34;5096866;28;20012;-66
2021/11/14 08:52:31;;;;;;;9.73;6.10;;;;;;;10.63;64.80;97004.19;5096686;28;20036;-66
2021/11/14 08:54:57;;;;;;;10.60;6.78;;;;;;;10.85;64.66;97000.88;5096619;28;20489;-63
2021/11/14 08:57:22;;;;;;;9.75;5.97;;;;;;;11.03;63.10;96990.72;5096621;28;20088;-63
2021/11/14 08:59:49;;;;;;;9.30;6.68;;;;;;;11.10;62.66;96998.31;5096645;28;20020;-65
2021/11/14 09:02:16;;;;;;;8.73;6.53;;;;;;;11.16;62.96;96997.25;5096504;28;20032;-67
2021/11/14 09:04:42;;;;;;;9.50;6.95;;;;;;;11.30;62.01;96998.56;5096483;28;20023;-65
2021/11/14 09:07:09;;;;;;;7.97;5.78;;;;;;;11.49;60.96;96986.56;5096380;28;20020;-67
2021/11/14 09:09:37;;;;;;;6.95;5.68;;;;;;;11.43;60.71;96999.84;5096483;28;20375;-63
2021/11/14 09:12:03;;;;;;;8.15;5.95;;;;;;;11.38;61.27;96986.06;5096345;28;20048;-60
2021/11/14 09:14:28;;;;;;;7.03;5.88;;;;;;;11.42;61.62;96989.44;5096332;28;20035;-61
2021/11/14 09:16:55;;;;;;;10.77;6.40;;;;;;;11.43;60.65;96988.50;5096304;28;20024;-64
2021/11/14 09:19:22;;;;;;;7.03;5.38;;;;;;;11.34;60.79;96982.69;5096019;28;20044;-67
2021/11/14 09:21:48;;;;;;;7.32;5.30;;;;;;;11.33;60.54;96983.59;5096099;28;20448;-62
2021/11/14 09:24:15;;;;;;;7.78;6.10;;;;;;;11.23;60.39;96982.22;5096043;28;20081;-68
2021/11/14 09:26:42;;;;;;;6.97;5.28;;;;;;;11.16;61.07;96985.91;5096070;28;20381;-68
2021/11/14 09:29:09;;;;;;;8.07;6.35;;;;;;;11.12;61.21;96988.66;5096099;28;20047;-65
2021/11/14 09:31:36;;;;;;;13.60;11.65;;;;;;;11.07;62.84;96987.94;5096152;28;20478;-61
2021/11/14 09:34:03;;;;;;;23.92;15.27;;;;;;;11.02;63.60;96979.41;5095989;28;20035;-62
2021/11/14 09:36:34;;;;;;;23.35;16.23;;;;;;;10.93;63.61;96982.31;5095871;28;20028;-65
2021/11/14 09:39:05;;;;;;;27.88;17.83;;;;;;;11.02;63.26;96982.03;5095926;28;20145;-66
2021/11/14 09:41:31;;;;;;;28.05;17.42;;;;;;;11.02;64.26;96987.25;5095761;28;20028;-65
2021/11/14 09:43:57;;;;;;;20.33;15.75;;;;;;;11.09;63.98;96977.41;5095789;28;20559;-64
2021/11/14 09:46:23;;;;;;;20.63;14.88;;;;;;;11.21;62.67;96982.25;5095784;28;20035;-67
2021/11/14 09:48:49;;;;;;;22.35;15.70;;;;;;;11.34;62.48;96982.69;5095622;28;20097;-64
2021/11/14 09:51:15;;;;;;;22.35;15.98;;;;;;;11.34;62.41;96980.06;5095188;28;20032;-67
2021/11/14 09:53:43;;;;;;;22.08;16.38;;;;;;;11.29;61.94;96970.66;5095592;28;20035;-65
2021/11/14 09:56:10;;;;;;;26.00;16.77;;;;;;;11.19;62.80;96972.72;5095574;28;20032;-64
2021/11/14 09:58:37;;;;;;;19.75;15.35;;;;;;;10.93;63.61;96977.06;5095477;28;20024;-62
2021/11/14 10:01:05;;;;;;;23.25;17.88;;;;;;;10.55;63.06;96983.47;5095415;28;20059;-65
2021/11/14 10:03:31;;;;;;;22.08;16.55;;;;;;;10.33;65.18;96984.06;5095225;28;20035;-63
2021/11/14 10:05:57;;;;;;;23.10;16.90;;;;;;;10.30;64.66;96994.63;5095338;28;20416;-66
2021/11/14 10:08:24;;;;;;;25.05;17.63;;;;;;;10.30;64.26;96984.16;5095503;28;20027;-65
2021/11/14 10:10:55;;;;;;;27.77;17.40;;;;;;;10.15;65.20;96984.63;5095247;28;20032;-61
2021/11/14 10:13:24;;;;;;;25.05;18.48;;;;;;;10.12;64.85;96988.22;5095164;28;20043;-63
2021/11/14 10:16:12;;;;;;;23.60;17.20;;;;;;;10.05;65.78;96979.66;5095144;28;20373;-66
2021/11/14 10:18:40;;;;;;;30.77;21.83;;;;;;;10.17;67.08;96975.84;5094729;28;20055;-67
2021/11/14 10:21:06;;;;;;;20.08;16.27;;;;;;;10.18;66.98;96977.53;5095072;28;20028;-66
2021/11/14 10:23:37;;;;;;;19.05;14.63;;;;;;;10.26;66.31;96973.88;5094952;28;20028;-64
2021/11/14 10:26:10;;;;;;;18.67;15.25;;;;;;;10.26;66.12;96973.88;5095018;28;20028;-65
2021/11/14 10:28:41;;;;;;;25.33;17.23;;;;;;;10.22;66.59;96965.25;5094820;28;20036;-65
2021/11/14 10:31:07;;;;;;;;;;;;;;;10.24;66.50;96968.69;5095378;28;20062;-65
2021/11/14 10:33:33;;;;;;;25.95;18.40;;;;;;;10.10;66.60;96967.34;5094838;28;19912;-66
2021/11/14 10:36:00;;;;;;;20.73;16.15;;;;;;;10.05;67.10;96966.59;5094702;28;20377;-64
2021/11/14 10:38:31;;;;;;;20.20;14.90;;;;;;;10.14;66.74;96956.78;5094650;28;20046;-62
2021/11/14 10:41:04;;;;;;;21.42;15.57;;;;;;;10.18;66.91;96953.19;5094617;28;20541;-67
2021/11/14 10:43:32;;;;;;;19.90;15.50;;;;;;;10.23;66.70;96956.50;5094556;28;20500;-66
2021/11/14 10:45:59;;;;;;;23.10;17.35;;;;;;;10.30;66.58;96950.16;5094694;28;20024;-60
2021/11/14 10:48:27;;;;;;;21.70;16.55;;;;;;;10.30;66.25;96946.72;5094405;28;20024;-64
2021/11/14 10:50:57;;;;;;;19.38;15.50;;;;;;;10.21;66.78;96950.47;5094341;28;20474;-64
2021/11/14 10:53:31;;;;;;;24.23;16.17;;;;;;;10.09;67.73;96944.69;5094368;28;20032;-63
2021/11/14 10:56:00;;;;;;;20.85;16.10;;;;;;;10.18;66.54;96940.09;5094474;28;20102;-64
2021/11/14 10:58:29;;;;;;;22.00;16.45;;;;;;;10.29;66.67;96940.63;5094330;28;20077;-65
2021/11/14 11:00:59;;;;;;;23.85;17.50;;;;;;;10.41;66.66;96934.16;5094267;28;20020;-62
2021/11/14 11:03:36;;;;;;;20.43;15.37;;;;;;;10.55;65.74;96932.91;5093477;28;20028;-66
2021/11/14 11:06:05;;;;;;;24.17;15.48;;;;;;;10.69;64.94;96928.09;5094164;28;20257;-64
2021/11/14 11:08:31;;;;;;;20.70;15.15;;;;;;;10.79;65.27;96925.16;5094240;28;20016;-61
2021/11/14 11:11:00;;;;;;;22.42;16.20;;;;;;;10.84;63.82;96928.50;5094082;28;20170;-63
2021/11/14 11:13:36;;;;;;;21.15;15.98;;;;;;;10.86;63.83;96924.06;5093982;28;20489;-65
2021/11/14 11:16:23;;;;;;;20.90;14.70;;;;;;;11.05;63.74;96926.06;5094147;28;20496;-66
2021/11/14 11:19:22;;;;;;;20.55;15.38;;;;;;;11.09;64.32;96922.44;5093765;28;20128;-65
2021/11/14 11:21:49;;;;;;;20.10;13.27;;;;;;;11.18;64.03;96927.38;5093867;28;20020;-64
2021/11/14 11:24:16;;;;;;;19.02;14.70;;;;;;;11.21;64.11;96923.78;5093786;28;20076;-66